Home > Products > Valid Products > MTR

000
SAUS43 KDLH 282157
MTRGNA
METAR KGNA 282156Z AUTO 07009G17KT 08/05 A3002 RMK AO1 SLP171
T00780050





000
SAUS43 KDLH 282057
MTRGNA
METAR KGNA 282056Z AUTO 06010KT 08/06 A3005 RMK AO1 SLP182 T00830056
58017





000
SAUS43 KDLH 281957
MTRGNA
METAR KGNA 281956Z AUTO 06009KT 09/06 A3007 RMK AO1 SLP186 T00890056





000
SAUS43 KDLH 281857
MTRGNA
METAR KGNA 281856Z AUTO 07012G17KT 09/06 A3009 RMK AO1 SLP194
T00890056





000
SAUS43 KDLH 281757
MTRGNA
METAR KGNA 281756Z AUTO 06011KT 08/06 A3010 RMK AO1 SLP198 T00780056
10083 20067 58018





000
SAUS43 KDLH 281757
MTRGNA
METAR KGNA 281756Z AUTO 06011KT 08/06 A3010 RMK AO1 SLP198 T00780056
10083 20067 58018





000
SAUS43 KDLH 281657
MTRGNA
METAR KGNA 281656Z AUTO 06010G17KT 07/04 A3013 RMK AO1 SLP206
T00720044





000
SAUS43 KDLH 281657
MTRGNA
METAR KGNA 281656Z AUTO 06010G17KT 07/04 A3013 RMK AO1 SLP206
T00720044





000
SAUS43 KDLH 281457
MTRGNA
METAR KGNA 281456Z AUTO 06011G16KT 07/04 A3016 RMK AO1 SLP216
T00720044 58004





000
SAUS43 KDLH 281357
MTRGNA
METAR KGNA 281356Z AUTO 06010KT 07/04 A3017 RMK AO1 SLP219 T00720039





000
SAUS43 KDLH 281357
MTRGNA
METAR KGNA 281356Z AUTO 06010KT 07/04 A3017 RMK AO1 SLP219 T00720039





000
SAUS43 KDLH 281257
MTRGNA
METAR KGNA 281256Z AUTO 06010G16KT 07/04 A3018 RMK AO1 SLP221
T00720039





000
SAUS43 KDLH 281157
MTRGNA
METAR KGNA 281156Z AUTO 07010KT 08/04 A3017 RMK AO1 SLP218 T00830039
10094 20050 52005





000
SAUS43 KDLH 281057
MTRGNA
METAR KGNA 281056Z AUTO 05010KT 08/04 A3016 RMK AO1 SLP209 T00830039
$





000
SAUS43 KDLH 280957
MTRGNA
METAR KGNA 280956Z AUTO 00000KT 06/04 A3016 RMK AO1 SLP214 T00560039
$





000
SAUS43 KDLH 280857
MTRGNA
METAR KGNA 280856Z AUTO 06006KT 06/04 A3015 RMK AO1 SLP210 T00610039
51010 $





000
SAUS43 KDLH 280857
MTRGNA
METAR KGNA 280856Z AUTO 06006KT 06/04 A3015 RMK AO1 SLP210 T00610039
51010 $





000
SAUS43 KDLH 280757
MTRGNA
METAR KGNA 280756Z AUTO 06008KT 06/03 A3015 RMK AO1 SLP214 T00610033
$





000
SAUS43 KDLH 280657
MTRGNA
METAR KGNA 280656Z AUTO 07010G19KT 07/04 A3014 RMK AO1 SLP209
T00720039 $





000
SAUS43 KDLH 280557
MTRGNA
METAR KGNA 280556Z AUTO 05010G18KT 08/04 A3012 RMK AO1 SLP205
T00780039 10133 20061 402720050 53030 $





000
SAUS43 KDLH 280557
MTRGNA
METAR KGNA 280556Z AUTO 05010G18KT 08/04 A3012 RMK AO1 SLP205
T00780039 10133 20061 402720050 53030 $





000
SAUS43 KDLH 280457
MTRGNA
METAR KGNA 280456Z AUTO 00000KT 08/05 A3008 RMK AO1 SLP190 T00780050
$





000
SAUS43 KDLH 280357
MTRGNA
METAR KGNA 280356Z AUTO 00000KT 08/05 A3006 RMK AO1 SLP186 T00780050
$





000
SAUS43 KDLH 280258
MTRGNA
METAR KGNA 280256Z AUTO 05006KT 09/05 A3003 RMK AO1 SLP173 T00890050
53042 $





000
SAUS43 KDLH 280159
MTRGNA
METAR KGNA 280156Z AUTO 06009KT 11/06 A2999 RMK AO1 SLP159 T01060056
$





000
SAUS43 KDLH 280146
MTRGNA
METAR KGNA 271856Z AUTO 24010KT 11/07 A2981 RMK AO1 SLP099 T01060067





000
SAUS43 KDLH 280059
MTRGNA
METAR KGNA 280056Z AUTO 06009KT 13/07 A2995 RMK AO1 SLP143 T01280072
$





000
SAUS43 KDLH 280059
MTRGNA
METAR KGNA 280056Z AUTO 06009KT 13/07 A2995 RMK AO1 SLP143 T01280072
$





000
SAUS43 KDLH 272359
MTRGNA
METAR KGNA 272356Z AUTO 06006KT 12/07 A2991 RMK AO1 PRESRR SLP131
T01220067 10272 20078 53024 $





000
SAUS43 KDLH 272359
MTRGNA
METAR KGNA 272356Z AUTO 06006KT 12/07 A2991 RMK AO1 PRESRR SLP131
T01220067 10272 20078 53024 $





000
SAUS43 KDLH 272259
MTRGNA
METAR KGNA 272256Z AUTO VRB03KT 26/08 A2986 RMK AO1 SLP108 T02610083





000
SAUS43 KDLH 272259
MTRGNA
METAR KGNA 272256Z AUTO VRB03KT 26/08 A2986 RMK AO1 SLP108 T02610083





000
SAUS43 KDLH 272159
MTRGNA
METAR KGNA 272156Z AUTO 30010G20KT 270V330 23/07 A2986 RMK AO1 PK
WND 29026/2141 SLP109 T02280072





000
SAUS43 KDLH 272059
MTRGNA
METAR KGNA 272056Z AUTO 33009G23KT 23/06 A2984 RMK AO1 SLP100
T02280056 53013





000
SAUS43 KDLH 271959
MTRGNA
METAR KGNA 271956Z AUTO 24012KT 08/06 A2982 RMK AO1 SLP102 T00830056





000
SAUS43 KDLH 271657
MTRGNA
METAR KGNA 271656Z AUTO 25013G18KT 09/06 A2979 RMK AO1 SLP089
T00940056





000
SAUS43 KDLH 271657
MTRGNA
METAR KGNA 271656Z AUTO 25013G18KT 09/06 A2979 RMK AO1 SLP089
T00940056





000
SAUS43 KDLH 271557
MTRGNA
METAR KGNA 271556Z AUTO 24012KT 07/04 A2977 RMK AO1 SLP082 T00670044





000
SAUS43 KDLH 271457
MTRGNA
METAR KGNA 271456Z AUTO 24012KT 09/06 A2976 RMK AO1 SLP079 T00890056
53006





000
SAUS43 KDLH 271457
MTRGNA
METAR KGNA 271456Z AUTO 24012KT 09/06 A2976 RMK AO1 SLP079 T00890056
53006





000
SAUS43 KDLH 271357
MTRGNA
METAR KGNA 271356Z AUTO 25009KT 08/05 A2975 RMK AO1 SLP076 T00780050





000
SAUS43 KDLH 271357
MTRGNA
METAR KGNA 271356Z AUTO 25009KT 08/05 A2975 RMK AO1 SLP076 T00780050





000
SAUS43 KDLH 271257
MTRGNA
METAR KGNA 271256Z AUTO 23007KT 08/06 A2974 RMK AO1 SLP074 T00780056





000
SAUS43 KDLH 271257
MTRGNA
METAR KGNA 271256Z AUTO 23007KT 08/06 A2974 RMK AO1 SLP074 T00780056





000
SAUS43 KDLH 271157
MTRGNA
METAR KGNA 271156Z AUTO 24008KT 05/04 A2974 RMK AO1 SLP075 T00500039
10100 20050 53009





000
SAUS43 KDLH 271157
MTRGNA
METAR KGNA 271156Z AUTO 24008KT 05/04 A2974 RMK AO1 SLP075 T00500039
10100 20050 53009





000
SAUS43 KDLH 271057
MTRGNA
METAR KGNA 271056Z AUTO 00000KT 07/06 A2973 RMK AO1 SLP070 T00720056





000
SAUS43 KDLH 270957
MTRGNA
METAR KGNA 270956Z AUTO 23004KT 08/06 A2971 RMK AO1 SLP064 T00780061





000
SAUS43 KDLH 270857
MTRGNA
METAR KGNA 270856Z AUTO 24005KT 09/07 A2971 RMK AO1 SLP064 T00890072
56006





000
SAUS43 KDLH 270757
MTRGNA
METAR KGNA 270756Z AUTO 25004KT 07/05 A2972 RMK AO1 SLP066 T00670050





000
SAUS43 KDLH 270657
MTRGNA
METAR KGNA 270656Z AUTO 00000KT 06/05 A2972 RMK AO1 SLP067 T00610050





000
SAUS43 KDLH 270557
MTRGNA
METAR KGNA 270556Z AUTO 00000KT 09/08 A2973 RMK AO1 SLP070 T00940083
10133 20078 401330056 58008





000
SAUS43 KDLH 270457
MTRGNA
METAR KGNA 270456Z AUTO 24005KT 09/08 A2975 RMK AO1 SLP075 T00940083





000
SAUS43 KDLH 270357
MTRGNA
METAR KGNA 270356Z AUTO 00000KT 13/11 A2975 RMK AO1 SLP074 T01330111





000
SAUS43 KDLH 270257
MTRGNA
METAR KGNA 270256Z AUTO 00000KT 10/08 A2975 RMK AO1 SLP078 T01000083
55008





000
SAUS43 KDLH 270257
MTRGNA
METAR KGNA 270256Z AUTO 00000KT 10/08 A2975 RMK AO1 SLP078 T01000083
55008





000
SAUS43 KDLH 270157
MTRGNA
METAR KGNA 270156Z AUTO 00000KT 12/09 A2975 RMK AO1 SLP074 T01170094





000
SAUS43 KDLH 270057
MTRGNA
METAR KGNA 270056Z AUTO 00000KT 11/10 A2976 RMK AO1 SLP078 T01110100





000
SAUS43 KDLH 262357
MTRGNA
METAR KGNA 262356Z AUTO 00000KT 12/09 A2978 RMK AO1 SLP086 T01170094
10128 20089 57013





000
SAUS43 KDLH 262257
MTRGNA
METAR KGNA 262256Z AUTO 00000KT 12/10 A2979 RMK AO1 SLP091 T01220100





000
SAUS43 KDLH 262157
MTRGNA
METAR KGNA 262156Z AUTO 00000KT 12/11 A2981 RMK AO1 SLP095 T01220106





000
SAUS43 KDLH 262057
MTRGNA
METAR KGNA 262056Z AUTO 00000KT 10/08 A2982 RMK AO1 SLP099 T01000083
56016





000
SAUS43 KDLH 261957
MTRGNA
METAR KGNA 261956Z AUTO 25003KT 09/08 A2983 RMK AO1 SLP105 T00940083





000
SAUS43 KDLH 261957
MTRGNA
METAR KGNA 261956Z AUTO 25003KT 09/08 A2983 RMK AO1 SLP105 T00940083





000
SAUS43 KDLH 261857
MTRGNA
METAR KGNA 261856Z AUTO 25003KT 12/10 A2984 RMK AO1 SLP108 T01170100





000
SAUS43 KDLH 261857
MTRGNA
METAR KGNA 261856Z AUTO 25003KT 12/10 A2984 RMK AO1 SLP108 T01170100





000
SAUS43 KDLH 261757
MTRGNA
METAR KGNA 261756Z AUTO 25005KT 11/09 A2987 RMK AO1 SLP115 T01110089
10128 20089 50003





000
SAUS43 KDLH 261757
MTRGNA
METAR KGNA 261756Z AUTO 25005KT 11/09 A2987 RMK AO1 SLP115 T01110089
10128 20089 50003





000
SAUS43 KDLH 261657
MTRGNA
METAR KGNA 261656Z AUTO 25005KT 11/09 A2987 RMK AO1 SLP120 T01110089





000
SAUS43 KDLH 261657
MTRGNA
METAR KGNA 261656Z AUTO 25005KT 11/09 A2987 RMK AO1 SLP120 T01110089





000
SAUS43 KDLH 261557
MTRGNA
METAR KGNA 261556Z AUTO 24005KT 12/09 A2987 RMK AO1 SLP117 T01170094





000
SAUS43 KDLH 261457
MTRGNA
METAR KGNA 261456Z AUTO 23006KT 10/08 A2985 RMK AO1 SLP114 T01000083
53005





000
SAUS43 KDLH 261357
MTRGNA
METAR KGNA 261356Z AUTO 00000KT 12/11 A2985 RMK AO1 SLP112 T01220106





000
SAUS43 KDLH 261357
MTRGNA
METAR KGNA 261356Z AUTO 00000KT 12/11 A2985 RMK AO1 SLP112 T01220106





000
SAUS43 KDLH 261257
MTRGNA
METAR KGNA 261256Z AUTO 00000KT 12/11 A2984 RMK AO1 SLP106 T01170106





000
SAUS43 KDLH 261157
MTRGNA
METAR KGNA 261156Z AUTO 00000KT 08/08 A2984 RMK AO1 SLP107 70051
T00830083 10117 20056 53014





000
SAUS43 KDLH 261057
MTRGNA
METAR KGNA 261056Z AUTO 25003KT 06/05 A2982 RMK AO1 SLP104 T00560050





000
SAUS43 KDLH 260957
MTRGNA
METAR KGNA 260956Z AUTO 00000KT 11/11 A2981 RMK AO1 SLP094 T01110106





000
SAUS43 KDLH 260857
MTRGNA
METAR KGNA 260856Z AUTO 00000KT 09/09 A2980 RMK AO1 SLP091 T00940089
50006





000
SAUS43 KDLH 260757
MTRGNA
METAR KGNA 260756Z AUTO 00000KT 08/08 A2980 RMK AO1 SLP094 T00780078





000
SAUS43 KDLH 260657
MTRGNA
METAR KGNA 260656Z AUTO 00000KT 09/09 A2979 RMK AO1 SLP087 T00940094





000
SAUS43 KDLH 260557
MTRGNA
METAR KGNA 260556Z AUTO 00000KT 09/08 A2978 RMK AO1 SLP084 60003
T00890078 10111 20050 401560050 50006





000
SAUS43 KDLH 260457
MTRGNA
METAR KGNA 260456Z AUTO 25003KT 06/06 A2979 RMK AO1 SLP089 P0003
T00560056





000
SAUS43 KDLH 260357
MTRGNA
METAR KGNA 260356Z AUTO 23004KT 06/05 A2977 RMK AO1 SLP084 T00560050





000
SAUS43 KDLH 260257
MTRGNA
METAR KGNA 260256Z AUTO 24008KT 06/06 A2976 RMK AO1 SLP078 T00610056
53010





000
SAUS43 KDLH 260157
MTRGNA
METAR KGNA 260156Z AUTO 00000KT 07/06 A2974 RMK AO1 SLP075 T00670061





000
SAUS43 KDLH 260057
MTRGNA
METAR KGNA 260056Z AUTO VRB03KT 08/07 A2973 RMK AO1 SLP073 T00780072





000
SAUS43 KDLH 260057
MTRGNA
METAR KGNA 260056Z AUTO VRB03KT 08/07 A2973 RMK AO1 SLP073 T00780072





000
SAUS43 KDLH 252357
MTRGNA
METAR KGNA 252356Z AUTO 00000KT 09/08 A2973 RMK AO1 SLP071 60027
T00940083 10156 20072 53008





000
SAUS43 KDLH 252357
MTRGNA
METAR KGNA 252356Z AUTO 00000KT 09/08 A2973 RMK AO1 SLP071 60027
T00940083 10156 20072 53008





000
SAUS43 KDLH 252257
MTRGNA
METAR KGNA 252256Z AUTO 06006KT 08/08 A2970 RMK AO1 SLP061 T00830078





000
SAUS43 KDLH 252257
MTRGNA
METAR KGNA 252256Z AUTO 06006KT 08/08 A2970 RMK AO1 SLP061 T00830078





    US Dept of Commerce
    National Oceanic and Atmospheric Administration
    National Weather Service
    1325 East West Highway
    Silver Spring, MD 20910
    Page Author: NWS Internet Services Team
Disclaimer
Information Quality
Credits
Glossary
Privacy Policy
Freedom of Information Act (FOIA)
About Us
Career Opportunities